Portada
METAR-TAF:

METAR-TAF

Aeroports :

Nancy, França

latitud: 48-41N, longitud: 006-13E, altitud: 225 m

Observació

L'informe es va fer fa 27 minuts, a les 02:30 UTC
Vent 5 kt del Est/Nord-Est
Temperatura 9°C
Humitat 81%
Pressió 1032 hPa
Visibilitat 10 km o més
sense núvols per sota de 1500 mi sense presència de cumulonimbus.

METAR: LFSN 270230Z AUTO 07005KT CAVOK 09/06 Q1032

Hora: 04:57 (02:57 UTC)


TAF: manca

Observacions i pronòstics meteorològics de més de 4000 aeroports (METAR i TAF).

Les estacions disponibles són els punts grocs i vermells al mapa.

Posi el ratolí al punt desitjat per veure el nom de l'estació.

Feu clic per veure les observacions i els pronòstics meteorològics.

Per canviar el mapa: feu clic els botons verds amb una creu de color negre per apropar; al botó verd amb un guió per allunyar la imatge; o en les fletxes verdes per a mapes adjacents.


METAR-TAF: